createdAt,value
2022-09-11T00:01:14.555Z,101918.81
2022-09-11T00:03:43.295Z,101923.66
2022-09-11T00:06:13.373Z,101921.13
2022-09-11T00:08:41.395Z,101927.66
2022-09-11T00:11:17.657Z,101921.50
2022-09-11T00:13:50.226Z,101918.97
2022-09-11T00:16:28.713Z,101918.38
2022-09-11T00:18:58.120Z,101928.84
2022-09-11T00:21:25.474Z,101917.75
2022-09-11T00:23:52.248Z,101917.69
2022-09-11T00:26:19.543Z,101925.94
2022-09-11T00:28:46.669Z,101927.00
2022-09-11T00:31:16.898Z,101932.91
2022-09-11T00:33:44.835Z,101930.53
2022-09-11T00:36:17.452Z,101930.78
2022-09-11T00:38:46.357Z,101933.63
2022-09-11T00:41:17.141Z,101934.59
2022-09-11T00:43:52.896Z,101939.06
2022-09-11T00:46:21.003Z,101934.34
2022-09-11T00:48:50.702Z,101927.53
2022-09-11T00:51:26.719Z,101931.78
2022-09-11T00:53:56.400Z,101935.25
2022-09-11T00:56:26.386Z,101925.97
2022-09-11T00:58:55.687Z,101935.34
2022-09-11T01:01:22.358Z,101925.41
2022-09-11T01:03:49.225Z,101930.84
2022-09-11T01:06:16.363Z,101931.16
2022-09-11T01:08:43.748Z,101925.53
2022-09-11T01:11:21.125Z,101939.63
2022-09-11T01:14:19.971Z,101945.59
2022-09-11T01:16:56.967Z,101941.88
2022-09-11T01:20:06.534Z,101941.44
2022-09-11T01:22:51.880Z,101944.69
2022-09-11T01:25:28.029Z,101934.63
2022-09-11T01:27:59.012Z,101937.81
2022-09-11T01:30:35.582Z,101936.34
2022-09-11T01:33:23.070Z,101928.28
2022-09-11T01:36:14.140Z,101929.00
2022-09-11T01:39:00.823Z,101930.75
2022-09-11T01:41:30.109Z,101922.66
2022-09-11T01:44:12.505Z,101927.56
2022-09-11T01:46:44.344Z,101927.38
2022-09-11T01:49:17.187Z,101925.59
2022-09-11T01:51:44.842Z,101920.63
2022-09-11T01:54:17.112Z,101927.97
2022-09-11T01:56:52.433Z,101920.03
2022-09-11T01:59:27.903Z,101926.38
2022-09-11T02:02:07.884Z,101920.66
2022-09-11T02:04:41.112Z,101928.88
2022-09-11T02:07:19.827Z,101929.72
2022-09-11T02:10:00.091Z,101928.28
2022-09-11T02:12:33.614Z,101939.69
2022-09-11T02:15:00.497Z,101923.66
2022-09-11T02:17:52.325Z,101935.63
2022-09-11T02:20:21.027Z,101925.34
2022-09-11T02:22:49.086Z,101926.63
2022-09-11T02:25:16.278Z,101932.97
2022-09-11T02:27:42.874Z,101931.72
2022-09-11T02:30:10.381Z,101940.72
2022-09-11T02:32:40.971Z,101937.63
2022-09-11T02:35:09.193Z,101936.50
2022-09-11T02:37:59.240Z,101926.63
2022-09-11T02:40:56.416Z,101929.66
2022-09-11T02:44:27.739Z,101924.94
2022-09-11T02:47:15.008Z,101918.00
2022-09-11T02:50:13.870Z,101927.47
2022-09-11T02:53:10.135Z,101926.63
2022-09-11T02:55:56.742Z,101921.38
2022-09-11T02:58:28.642Z,101921.28
2022-09-11T03:01:00.462Z,101918.00
2022-09-11T03:03:27.244Z,101929.00
2022-09-11T03:05:54.257Z,101920.63
2022-09-11T03:08:20.841Z,101934.00
2022-09-11T03:10:49.967Z,101940.00
2022-09-11T03:13:16.622Z,101933.03
2022-09-11T03:15:46.044Z,101933.53
2022-09-11T03:18:14.552Z,101926.84
2022-09-11T03:20:44.981Z,101930.34
2022-09-11T03:23:11.508Z,101931.94
2022-09-11T03:25:38.041Z,101940.41
2022-09-11T03:28:04.702Z,101934.19
2022-09-11T03:30:32.296Z,101928.72
2022-09-11T03:33:00.616Z,101937.56
2022-09-11T03:35:27.979Z,101942.16
2022-09-11T03:37:55.583Z,101945.47
2022-09-11T03:40:23.019Z,101946.34
2022-09-11T03:42:49.634Z,101933.25
2022-09-11T03:45:16.374Z,101943.00
2022-09-11T03:47:43.057Z,101937.81
2022-09-11T03:50:10.742Z,101937.53
2022-09-11T03:52:37.820Z,101940.06
2022-09-11T03:55:06.027Z,101938.44
2022-09-11T03:57:41.542Z,101929.94
2022-09-11T04:00:10.028Z,101934.06
2022-09-11T04:02:36.552Z,101929.84
2022-09-11T04:05:04.465Z,101932.69
2022-09-11T04:07:31.080Z,101933.06
2022-09-11T04:09:58.392Z,101938.19
2022-09-11T04:12:25.695Z,101933.50
2022-09-11T04:14:52.607Z,101930.31
2022-09-11T04:17:19.161Z,101930.31
2022-09-11T04:19:45.779Z,101945.22
2022-09-11T04:22:12.282Z,101951.59
2022-09-11T04:24:38.886Z,101947.44
2022-09-11T04:27:05.666Z,101947.84
2022-09-11T04:29:33.827Z,101948.97
2022-09-11T04:32:00.310Z,101950.59
2022-09-11T04:34:26.812Z,101952.81
2022-09-11T04:36:55.909Z,101948.44
2022-09-11T04:39:22.807Z,101959.28
2022-09-11T04:41:49.465Z,101961.56
2022-09-11T04:44:16.024Z,101963.00
2022-09-11T04:46:42.977Z,101956.75
2022-09-11T04:49:10.807Z,101954.78
2022-09-11T04:51:39.126Z,101953.69
2022-09-11T04:54:06.253Z,101963.63
2022-09-11T04:56:34.858Z,101967.75
2022-09-11T04:59:05.897Z,101972.22
2022-09-11T05:01:34.169Z,101963.22
2022-09-11T05:04:01.644Z,101958.41
2022-09-11T05:06:30.844Z,101964.69
2022-09-11T05:09:02.711Z,101975.81
2022-09-11T05:11:32.932Z,101977.88
2022-09-11T05:14:00.129Z,101985.66
2022-09-11T05:16:28.652Z,101985.47
2022-09-11T05:18:56.643Z,101986.13
2022-09-11T05:21:26.340Z,101987.84
2022-09-11T05:23:55.537Z,101988.25
2022-09-11T05:26:24.943Z,102000.22
2022-09-11T05:29:00.186Z,102014.97
2022-09-11T05:31:28.898Z,102004.16
2022-09-11T05:33:56.267Z,102013.09
2022-09-11T05:36:23.803Z,102018.19
2022-09-11T05:38:50.641Z,102016.59
2022-09-11T05:41:17.472Z,102015.94
2022-09-11T05:43:44.285Z,102025.25
2022-09-11T05:46:13.414Z,102023.16
2022-09-11T05:48:40.182Z,102019.06
2022-09-11T05:51:12.971Z,102033.00
2022-09-11T05:53:39.868Z,102027.38
2022-09-11T05:56:19.886Z,102026.06
2022-09-11T05:58:48.213Z,102032.50
2022-09-11T06:01:19.851Z,102021.69
2022-09-11T06:03:48.556Z,102023.00
2022-09-11T06:06:16.713Z,102030.00
2022-09-11T06:08:47.510Z,102032.97
2022-09-11T06:11:16.285Z,102035.25
2022-09-11T06:13:44.841Z,102035.22
2022-09-11T06:16:18.098Z,102037.78
2022-09-11T06:18:49.322Z,102050.13
2022-09-11T06:21:20.136Z,102048.66
2022-09-11T06:23:48.876Z,102042.91
2022-09-11T06:26:21.391Z,102042.84
2022-09-11T06:28:48.536Z,102043.44
2022-09-11T06:31:17.584Z,102033.28
2022-09-11T06:33:45.014Z,102019.78
2022-09-11T06:36:17.537Z,102017.72
2022-09-11T06:38:44.550Z,101995.53
2022-09-11T06:41:14.911Z,101980.25
2022-09-11T06:43:42.605Z,101969.06
2022-09-11T06:46:14.554Z,101942.47
2022-09-11T06:48:43.135Z,101924.56
2022-09-11T06:51:15.437Z,101906.56
2022-09-11T06:53:42.269Z,101910.56
2022-09-11T06:56:12.988Z,101919.31
2022-09-11T06:58:40.140Z,101912.50
2022-09-11T07:01:10.126Z,101916.44
2022-09-11T07:03:37.522Z,101937.09
2022-09-11T07:06:05.945Z,101947.66
2022-09-11T07:08:32.505Z,101941.75
2022-09-11T07:11:06.296Z,101944.91
2022-09-11T07:13:37.485Z,101934.13
2022-09-11T07:16:07.972Z,101940.09
2022-09-11T07:18:36.521Z,101939.72
2022-09-11T07:21:23.874Z,101944.03
2022-09-11T07:23:54.421Z,101958.88
2022-09-11T07:26:22.286Z,101968.50
2022-09-11T07:28:50.269Z,101974.09
2022-09-11T07:31:21.121Z,101983.16
2022-09-11T07:33:49.168Z,101982.34
2022-09-11T07:36:18.767Z,101994.41
2022-09-11T07:38:47.755Z,101995.97
2022-09-11T07:41:15.735Z,102001.56
2022-09-11T07:43:45.551Z,102000.50
2022-09-11T07:46:13.002Z,101987.69
2022-09-11T07:48:40.480Z,101974.88
2022-09-11T07:51:09.292Z,101978.50
2022-09-11T07:53:38.359Z,101987.31
2022-09-11T07:56:07.091Z,101991.28
2022-09-11T07:58:38.467Z,102007.69
2022-09-11T08:01:06.433Z,101992.34
2022-09-11T08:03:34.360Z,101963.69
2022-09-11T08:06:02.671Z,101948.38
2022-09-11T08:08:30.311Z,101918.81
2022-09-11T08:11:04.475Z,101948.91
2022-09-11T08:13:31.224Z,101975.34
2022-09-11T08:15:57.783Z,101955.81
2022-09-11T08:18:24.610Z,101954.28
2022-09-11T08:20:51.318Z,101941.47
2022-09-11T08:23:17.886Z,101951.13
2022-09-11T08:25:44.611Z,101947.31
2022-09-11T08:28:11.372Z,101939.78
2022-09-11T08:30:40.411Z,101945.91
2022-09-11T08:33:08.590Z,101941.28
2022-09-11T08:35:35.656Z,101922.75
2022-09-11T08:38:03.321Z,101926.41
2022-09-11T08:40:31.705Z,101920.50
2022-09-11T08:43:02.646Z,101929.44
2022-09-11T08:45:34.821Z,101940.00
2022-09-11T08:48:01.909Z,101940.19
2022-09-11T08:50:35.091Z,101946.47
2022-09-11T08:53:03.117Z,101951.47
2022-09-11T08:55:52.526Z,101949.81
2022-09-11T08:58:46.129Z,101963.28
2022-09-11T09:01:37.145Z,101950.75
2022-09-11T09:04:33.100Z,101946.50
2022-09-11T09:07:17.576Z,101939.25
2022-09-11T09:10:14.404Z,101940.09
2022-09-11T09:12:58.039Z,101944.44
2022-09-11T09:16:20.259Z,101955.28
2022-09-11T09:18:55.212Z,101949.84
2022-09-11T09:21:35.469Z,101965.97
2022-09-11T09:24:08.457Z,101957.97
2022-09-11T09:26:40.527Z,101964.78
2022-09-11T09:29:14.740Z,101956.13
2022-09-11T09:31:44.383Z,101956.19
2022-09-11T09:34:18.679Z,101968.59
2022-09-11T09:36:56.227Z,101971.41
2022-09-11T09:39:24.052Z,101976.63
2022-09-11T09:42:13.978Z,101981.91
2022-09-11T09:45:13.417Z,101982.78
2022-09-11T09:47:44.688Z,101986.47
2022-09-11T09:50:29.230Z,101966.84
2022-09-11T09:53:33.664Z,101962.63
2022-09-11T09:56:01.415Z,101971.84
2022-09-11T09:58:34.499Z,101962.41
2022-09-11T10:01:01.225Z,101963.41
2022-09-11T10:03:27.988Z,101955.44
2022-09-11T10:05:56.450Z,101952.72
2022-09-11T10:08:35.565Z,101956.53
2022-09-11T10:11:07.441Z,101954.91
2022-09-11T10:13:38.042Z,101960.53
2022-09-11T10:16:19.338Z,101960.06
2022-09-11T10:18:47.181Z,101957.50
2022-09-11T10:21:13.876Z,101950.31
2022-09-11T10:23:47.988Z,101956.50
2022-09-11T10:26:21.082Z,101957.69
2022-09-11T10:28:48.490Z,101965.94
2022-09-11T10:31:18.852Z,101967.75
2022-09-11T10:33:58.103Z,101956.53
2022-09-11T10:36:27.284Z,101954.41
2022-09-11T10:38:55.670Z,101954.38
2022-09-11T10:41:25.690Z,101950.50
2022-09-11T10:44:14.003Z,101942.22
2022-09-11T10:46:42.741Z,101934.28
2022-09-11T10:49:21.158Z,101938.63
2022-09-11T10:52:08.979Z,101933.25
2022-09-11T10:54:45.942Z,101925.94
2022-09-11T10:57:45.255Z,101924.72
2022-09-11T11:00:21.244Z,101932.94
2022-09-11T11:02:56.126Z,101928.47
2022-09-11T11:05:53.227Z,101930.47
2022-09-11T11:08:31.311Z,101928.09
2022-09-11T11:11:14.855Z,101918.25
2022-09-11T11:14:20.588Z,101933.84
2022-09-11T11:17:24.146Z,101925.91
2022-09-11T11:20:22.701Z,101928.19
2022-09-11T11:23:16.296Z,101924.16
2022-09-11T11:26:17.389Z,101928.91
2022-09-11T11:28:46.809Z,101930.53
2022-09-11T11:31:51.404Z,101927.84
2022-09-11T11:34:43.624Z,101931.88
2022-09-11T11:37:11.733Z,101928.06
2022-09-11T11:40:10.456Z,101918.81
2022-09-11T11:42:46.965Z,101914.13
2022-09-11T11:45:27.808Z,101902.78
2022-09-11T11:47:55.627Z,101904.47
2022-09-11T11:50:33.468Z,101909.91
2022-09-11T11:53:24.843Z,101903.16
2022-09-11T11:56:08.956Z,101903.50
2022-09-11T11:58:51.623Z,101906.97
2022-09-11T12:01:29.524Z,101899.28
2022-09-11T12:04:16.407Z,101896.84
2022-09-11T12:06:43.272Z,101887.44
2022-09-11T12:09:12.569Z,101903.03
2022-09-11T12:11:39.254Z,101898.56
2022-09-11T12:14:07.325Z,101894.66
2022-09-11T12:16:35.763Z,101902.03
2022-09-11T12:19:04.868Z,101891.19
2022-09-11T12:21:31.700Z,101890.75
2022-09-11T12:23:58.337Z,101885.41
2022-09-11T12:26:26.947Z,101880.31
2022-09-11T12:29:15.895Z,101886.47
2022-09-11T12:31:51.641Z,101885.03
2022-09-11T12:34:47.741Z,101875.38
2022-09-11T12:37:26.633Z,101868.78
2022-09-11T12:40:04.437Z,101863.81
2022-09-11T12:42:31.065Z,101867.63
2022-09-11T12:44:59.789Z,101864.75
2022-09-11T12:47:35.699Z,101869.69
2022-09-11T12:50:05.171Z,101866.16
2022-09-11T12:52:40.144Z,101864.66
2022-09-11T12:55:27.912Z,101862.97
2022-09-11T12:57:55.125Z,101854.69
2022-09-11T13:00:28.214Z,101855.94
2022-09-11T13:02:58.258Z,101843.59
2022-09-11T13:05:40.855Z,101855.19
2022-09-11T13:08:17.943Z,101839.25
2022-09-11T13:10:46.787Z,101843.22
2022-09-11T13:13:35.158Z,101847.81
2022-09-11T13:16:25.464Z,101845.06
2022-09-11T13:18:59.377Z,101838.00
2022-09-11T13:21:26.666Z,101835.97
2022-09-11T13:23:53.748Z,101829.38
2022-09-11T13:26:27.199Z,101831.41
2022-09-11T13:28:56.856Z,101831.44
2022-09-11T13:31:38.359Z,101830.00
2022-09-11T13:34:13.182Z,101834.06
2022-09-11T13:36:40.605Z,101831.75
2022-09-11T13:39:09.220Z,101831.66
2022-09-11T13:41:44.455Z,101814.31
2022-09-11T13:44:46.461Z,101820.84
2022-09-11T13:47:31.716Z,101804.69
2022-09-11T13:50:05.314Z,101808.31
2022-09-11T13:52:34.680Z,101808.63
2022-09-11T13:55:10.183Z,101805.63
2022-09-11T13:58:00.765Z,101806.19
2022-09-11T14:00:48.711Z,101804.53
2022-09-11T14:03:21.556Z,101793.91
2022-09-11T14:05:56.590Z,101796.47
2022-09-11T14:08:36.054Z,101799.72
2022-09-11T14:11:11.163Z,101796.22
2022-09-11T14:14:06.426Z,101795.66
2022-09-11T14:16:36.658Z,101791.47
2022-09-11T14:19:13.378Z,101791.66
2022-09-11T14:21:46.000Z,101789.69
2022-09-11T14:24:37.055Z,101784.91
2022-09-11T14:27:23.404Z,101783.81
2022-09-11T14:29:55.571Z,101775.06
2022-09-11T14:32:33.843Z,101780.53
2022-09-11T14:35:09.339Z,101789.31
2022-09-11T14:37:41.542Z,101784.13
2022-09-11T14:40:16.001Z,101791.00
2022-09-11T14:42:43.999Z,101784.34
2022-09-11T14:45:23.141Z,101773.47
2022-09-11T14:47:50.527Z,101777.00
2022-09-11T14:50:17.481Z,101782.72
2022-09-11T14:52:44.314Z,101770.63
2022-09-11T14:55:15.914Z,101771.03
2022-09-11T14:57:42.549Z,101769.41
2022-09-11T15:00:10.953Z,101770.53
2022-09-11T15:02:37.516Z,101765.25
2022-09-11T15:05:07.110Z,101772.28
2022-09-11T15:07:35.772Z,101767.66
2022-09-11T15:10:02.339Z,101767.72
2022-09-11T15:12:29.403Z,101769.72
2022-09-11T15:14:58.479Z,101769.53
2022-09-11T15:17:31.493Z,101767.81
2022-09-11T15:20:00.394Z,101754.41
2022-09-11T15:22:27.698Z,101752.97
2022-09-11T15:24:56.113Z,101757.03
2022-09-11T15:27:25.037Z,101763.16
2022-09-11T15:29:51.735Z,101753.88
2022-09-11T15:32:18.276Z,101755.38
2022-09-11T15:34:45.349Z,101750.47
2022-09-11T15:37:12.162Z,101744.16
2022-09-11T15:39:38.860Z,101733.16
2022-09-11T15:42:07.411Z,101735.06
2022-09-11T15:44:36.296Z,101739.91
2022-09-11T15:47:07.095Z,101735.31
2022-09-11T15:49:40.707Z,101731.88
2022-09-11T15:52:07.419Z,101727.66
2022-09-11T15:54:33.992Z,101728.19
2022-09-11T15:57:00.737Z,101733.66
2022-09-11T15:59:27.433Z,101733.38
2022-09-11T16:01:54.046Z,101737.47
2022-09-11T16:04:21.692Z,101733.28
2022-09-11T16:06:49.400Z,101735.00
2022-09-11T16:09:21.201Z,101730.00
2022-09-11T16:11:48.952Z,101735.28
2022-09-11T16:14:30.206Z,101727.78
2022-09-11T16:16:58.007Z,101718.44
2022-09-11T16:19:27.920Z,101727.06
2022-09-11T16:22:00.521Z,101726.50
2022-09-11T16:24:28.883Z,101729.69
2022-09-11T16:26:56.025Z,101724.38
2022-09-11T16:29:51.173Z,101722.53
2022-09-11T16:32:28.273Z,101733.72
2022-09-11T16:34:56.913Z,101731.06
2022-09-11T16:37:23.753Z,101725.97
2022-09-11T16:39:50.813Z,101724.22
2022-09-11T16:42:21.771Z,101724.31
2022-09-11T16:44:49.457Z,101719.19
2022-09-11T16:47:17.367Z,101719.69
2022-09-11T16:50:05.816Z,101713.00
2022-09-11T16:52:31.163Z,101706.63
2022-09-11T16:54:57.784Z,101705.78
2022-09-11T16:57:24.394Z,101708.28
2022-09-11T16:59:50.985Z,101702.25
2022-09-11T17:02:17.690Z,101701.50
2022-09-11T17:04:44.299Z,101697.53
2022-09-11T17:07:10.947Z,101695.78
2022-09-11T17:09:37.801Z,101704.06
2022-09-11T17:12:04.566Z,101694.78
2022-09-11T17:14:31.181Z,101688.72
2022-09-11T17:16:57.741Z,101696.78
2022-09-11T17:19:24.515Z,101697.16
2022-09-11T17:21:51.125Z,101699.88
2022-09-11T17:24:21.606Z,101698.06
2022-09-11T17:26:50.672Z,101697.44
2022-09-11T17:29:19.448Z,101700.91
2022-09-11T17:31:46.158Z,101698.59
2022-09-11T17:34:12.870Z,101699.53
2022-09-11T17:36:40.127Z,101700.81
2022-09-11T17:39:07.377Z,101703.34
2022-09-11T17:41:34.015Z,101700.72
2022-09-11T17:44:00.604Z,101704.72
2022-09-11T17:46:27.267Z,101696.13
2022-09-11T17:48:53.918Z,101699.19
2022-09-11T17:51:26.138Z,101701.75
2022-09-11T17:53:58.502Z,101689.50
2022-09-11T17:56:30.720Z,101692.91
2022-09-11T17:58:59.565Z,101695.00
2022-09-11T18:01:27.487Z,101697.13
2022-09-11T18:03:56.941Z,101692.63
2022-09-11T18:06:28.531Z,101704.78
2022-09-11T18:09:01.947Z,101701.84
2022-09-11T18:11:31.711Z,101704.38
2022-09-11T18:14:00.251Z,101714.53
2022-09-11T18:16:27.169Z,101717.91
2022-09-11T18:18:54.488Z,101719.22
2022-09-11T18:21:21.228Z,101720.88
2022-09-11T18:23:49.683Z,101725.59
2022-09-11T18:26:19.907Z,101725.09
2022-09-11T18:28:46.982Z,101727.09
2022-09-11T18:31:13.629Z,101729.25
2022-09-11T18:33:40.387Z,101718.03
2022-09-11T18:36:11.179Z,101720.75
2022-09-11T18:38:37.717Z,101713.69
2022-09-11T18:41:04.559Z,101726.97
2022-09-11T18:43:31.058Z,101726.38
2022-09-11T18:46:02.813Z,101731.28
2022-09-11T18:48:29.503Z,101737.69
2022-09-11T18:50:56.110Z,101732.00
2022-09-11T18:53:23.292Z,101740.34
2022-09-11T18:56:00.373Z,101736.84
2022-09-11T18:58:31.577Z,101738.59
2022-09-11T19:01:00.484Z,101753.81
2022-09-11T19:03:30.305Z,101751.44
2022-09-11T19:06:03.822Z,101754.19
2022-09-11T19:08:31.851Z,101753.66
2022-09-11T19:11:00.142Z,101764.47
2022-09-11T19:13:26.976Z,101768.53
2022-09-11T19:15:57.828Z,101778.91
2022-09-11T19:18:25.221Z,101772.91
2022-09-11T19:21:00.447Z,101772.50
2022-09-11T19:23:31.584Z,101771.69
2022-09-11T19:26:05.970Z,101761.25
2022-09-11T19:28:35.585Z,101759.16
2022-09-11T19:31:02.847Z,101761.97
2022-09-11T19:33:30.526Z,101766.06
2022-09-11T19:36:02.659Z,101767.69
2022-09-11T19:38:36.718Z,101754.06
2022-09-11T19:41:05.406Z,101763.63
2022-09-11T19:43:34.429Z,101762.09
2022-09-11T19:46:02.915Z,101769.28
2022-09-11T19:48:30.691Z,101768.59
2022-09-11T19:50:57.861Z,101774.19
2022-09-11T19:53:24.458Z,101770.63
2022-09-11T19:55:55.093Z,101773.72
2022-09-11T19:58:24.029Z,101774.94
2022-09-11T20:00:51.434Z,101776.59
2022-09-11T20:03:19.024Z,101767.88
2022-09-11T20:05:46.110Z,101773.06
2022-09-11T20:08:16.170Z,101780.69
2022-09-11T20:10:45.798Z,101783.47
2022-09-11T20:13:12.886Z,101783.09
2022-09-11T20:15:40.319Z,101780.72
2022-09-11T20:18:07.880Z,101786.34
2022-09-11T20:20:36.344Z,101784.75
2022-09-11T20:23:03.718Z,101779.19
2022-09-11T20:25:30.665Z,101790.78
2022-09-11T20:28:00.427Z,101791.16
2022-09-11T20:30:27.138Z,101794.34
2022-09-11T20:32:53.877Z,101795.16
2022-09-11T20:35:20.369Z,101782.34
2022-09-11T20:37:46.907Z,101789.53
2022-09-11T20:40:13.606Z,101793.16
2022-09-11T20:42:40.165Z,101788.75
2022-09-11T20:45:07.059Z,101805.53
2022-09-11T20:47:33.660Z,101800.72
2022-09-11T20:50:00.681Z,101805.53
2022-09-11T20:52:27.560Z,101802.72
2022-09-11T20:54:54.425Z,101812.28
2022-09-11T20:57:21.034Z,101822.25
2022-09-11T20:59:47.688Z,101823.88
2022-09-11T21:02:14.822Z,101813.09
2022-09-11T21:04:41.764Z,101814.28
2022-09-11T21:07:08.464Z,101805.84
2022-09-11T21:09:35.482Z,101811.00
2022-09-11T21:12:02.257Z,101809.84
2022-09-11T21:14:28.833Z,101806.28
2022-09-11T21:16:55.405Z,101795.91
2022-09-11T21:19:21.999Z,101795.13
2022-09-11T21:21:48.645Z,101788.72
2022-09-11T21:24:15.180Z,101783.16
2022-09-11T21:26:42.465Z,101783.94
2022-09-11T21:29:12.351Z,101783.16
2022-09-11T21:31:38.893Z,101779.97
2022-09-11T21:34:05.610Z,101772.78
2022-09-11T21:36:33.551Z,101770.38
2022-09-11T21:39:00.157Z,101767.22
2022-09-11T21:41:26.692Z,101758.81
2022-09-11T21:43:53.191Z,101761.19
2022-09-11T21:46:20.182Z,101760.00
2022-09-11T21:48:46.747Z,101766.38
2022-09-11T21:51:16.305Z,101761.22
2022-09-11T21:53:45.485Z,101767.59
2022-09-11T21:56:24.942Z,101779.16
2022-09-11T21:58:52.066Z,101784.72
2022-09-11T22:01:20.328Z,101784.31
2022-09-11T22:03:47.081Z,101791.47
2022-09-11T22:06:14.045Z,101782.28
2022-09-11T22:08:43.202Z,101793.47
2022-09-11T22:11:11.045Z,101791.44
2022-09-11T22:13:38.554Z,101789.00
2022-09-11T22:16:11.159Z,101791.00
2022-09-11T22:18:39.275Z,101791.78
2022-09-11T22:21:07.001Z,101784.94
2022-09-11T22:23:33.874Z,101787.00
2022-09-11T22:26:04.976Z,101792.53
2022-09-11T22:28:31.634Z,101779.84
2022-09-11T22:30:58.422Z,101774.66
2022-09-11T22:33:25.458Z,101775.84
2022-09-11T22:35:52.035Z,101762.69
2022-09-11T22:38:18.647Z,101768.69
2022-09-11T22:40:45.146Z,101762.34
2022-09-11T22:43:11.824Z,101754.34
2022-09-11T22:45:38.409Z,101745.56
2022-09-11T22:48:05.036Z,101750.34
2022-09-11T22:50:33.302Z,101758.25
2022-09-11T22:52:59.888Z,101749.88
2022-09-11T22:55:26.463Z,101753.47
2022-09-11T22:57:53.022Z,101743.97
2022-09-11T23:00:19.794Z,101734.34
2022-09-11T23:02:46.364Z,101738.28
2022-09-11T23:05:31.598Z,101737.06
2022-09-11T23:07:58.175Z,101750.97
2022-09-11T23:10:25.616Z,101741.44
2022-09-11T23:12:53.321Z,101751.47
2022-09-11T23:15:19.858Z,101735.06
2022-09-11T23:17:46.941Z,101743.41
2022-09-11T23:20:13.844Z,101754.13
2022-09-11T23:22:40.326Z,101755.66
2022-09-11T23:25:07.226Z,101746.50
2022-09-11T23:27:33.730Z,101746.19
2022-09-11T23:30:00.294Z,101738.25
2022-09-11T23:32:26.805Z,101736.59
2022-09-11T23:34:53.373Z,101732.69
2022-09-11T23:37:19.914Z,101727.03
2022-09-11T23:39:46.835Z,101732.19
2022-09-11T23:42:13.527Z,101733.41
2022-09-11T23:44:40.094Z,101730.56
2022-09-11T23:47:06.661Z,101722.16
2022-09-11T23:49:36.358Z,101717.06
2022-09-11T23:52:04.104Z,101720.63
2022-09-11T23:54:30.634Z,101715.84
2022-09-11T23:56:57.206Z,101720.63
2022-09-11T23:59:23.712Z,101724.16
